Time;durP1;ratioP1;P1;durP2;ratioP2;P2;SDS_P1;SDS_P2;PMS_P1;PMS_P2;Temp;Humidity;BMP_temperature;BMP_pressure;BME280_temperature;BME280_humidity;BME280_pressure;Samples;Min_cycle;Max_cycle;Signal;HPM_P1;HPM_P2
2022/08/21 00:03:22;;;;;;;20.10;10.65;;;;;;;14.67;100.00;101604.91;10395195;28;20993;-75
2022/08/21 00:08:22;;;;;;;14.05;10.50;;;;;;;14.56;100.00;101595.69;10378317;28;20049;-76
2022/08/21 00:13:23;;;;;;;20.45;10.85;;;;;;;14.60;100.00;101602.38;10413803;28;20370;-76
2022/08/21 00:18:23;;;;;;;20.75;11.45;;;;;;;14.54;100.00;101598.69;10394762;28;20053;-76
2022/08/21 00:23:24;;;;;;;19.98;11.52;;;;;;;14.56;100.00;101606.75;10392201;28;20042;-75
2022/08/21 00:28:24;;;;;;;21.48;13.32;;;;;;;14.50;100.00;101603.06;10400346;28;20034;-76
2022/08/21 00:33:25;;;;;;;20.42;12.48;;;;;;;14.41;100.00;101609.38;10402131;28;20053;-76
2022/08/21 00:38:26;;;;;;;23.08;12.55;;;;;;;14.28;100.00;101599.53;10401919;28;20045;-76
2022/08/21 00:43:28;;;;;;;19.80;13.27;;;;;;;13.83;100.00;101565.56;10401813;28;20045;-76
2022/08/21 00:48:29;;;;;;;27.50;15.60;;;;;;;14.22;100.00;101600.56;10383860;28;20048;-76
2022/08/21 00:53:30;;;;;;;22.70;15.38;;;;;;;14.17;100.00;101606.91;10418379;28;20044;-76
2022/08/21 00:58:31;;;;;;;24.80;14.25;;;;;;;14.10;100.00;101609.88;10400458;28;20068;-75
2022/08/21 01:03:31;;;;;;;24.02;15.10;;;;;;;14.04;100.00;101604.56;10383729;28;20083;-76
2022/08/21 01:08:32;;;;;;;17.90;12.45;;;;;;;13.92;100.00;101599.97;10417133;28;20041;-75
2022/08/21 01:13:34;;;;;;;18.23;12.25;;;;;;;13.99;100.00;101618.31;10400957;28;20040;-75
2022/08/21 01:18:35;;;;;;;20.70;13.45;;;;;;;13.91;100.00;101616.84;10399481;28;20040;-76
2022/08/21 01:23:37;;;;;;;22.48;12.80;;;;;;;13.89;100.00;101619.88;10398152;28;20068;-76
2022/08/21 01:28:43;;;;;;;20.90;13.18;;;;;;;13.85;100.00;101620.63;10398074;28;20057;-76
2022/08/21 01:33:44;;;;;;;20.65;12.57;;;;;;;13.73;100.00;101609.72;10415419;28;20033;-76
2022/08/21 01:38:44;;;;;;;21.35;12.23;;;;;;;13.76;100.00;101620.25;10398013;28;20037;-76
2022/08/21 01:43:45;;;;;;;21.30;13.35;;;;;;;13.70;100.00;101604.69;10384082;28;20045;-76
2022/08/21 01:48:45;;;;;;;20.02;13.13;;;;;;;13.62;100.00;101597.69;10397323;28;20094;-75
2022/08/21 01:53:46;;;;;;;26.83;14.05;;;;;;;13.69;100.00;101614.09;10383059;28;20041;-73
2022/08/21 01:58:47;;;;;;;23.00;13.00;;;;;;;13.64;100.00;101606.56;10381585;28;20033;-76
2022/08/21 02:03:47;;;;;;;25.23;15.10;;;;;;;13.56;100.00;101603.41;10413573;28;20061;-75
2022/08/21 02:08:48;;;;;;;27.30;14.70;;;;;;;13.52;100.00;101598.38;10414455;28;20040;-76
2022/08/21 02:13:48;;;;;;;27.38;14.50;;;;;;;13.48;100.00;101590.88;10414318;28;20033;-76
2022/08/21 02:18:49;;;;;;;23.75;14.30;;;;;;;13.47;100.00;101592.78;10414179;28;20044;-76
2022/08/21 02:23:49;;;;;;;18.58;13.02;;;;;;;13.38;100.00;101585.19;10414385;28;20053;-77
2022/08/21 02:28:50;;;;;;;20.15;13.60;;;;;;;13.37;100.00;101578.81;10387610;28;20053;-76
2022/08/21 02:33:50;;;;;;;22.35;13.77;;;;;;;13.26;100.00;101576.97;10356594;28;20049;-76
2022/08/21 02:38:51;;;;;;;19.73;12.40;;;;;;;13.20;100.00;101578.00;10356868;28;20038;-77
2022/08/21 02:43:52;;;;;;;19.75;12.43;;;;;;;13.22;100.00;101584.94;10388625;28;20041;-75
2022/08/21 02:48:52;;;;;;;18.05;11.25;;;;;;;13.16;100.00;101576.84;10356703;28;20038;-76
2022/08/21 02:53:53;;;;;;;16.42;11.38;;;;;;;13.07;100.00;101574.50;10355436;28;20053;-77
2022/08/21 02:58:53;;;;;;;15.32;10.95;;;;;;;13.07;100.00;101562.63;10349080;28;20034;-76
2022/08/21 03:03:54;;;;;;;18.67;10.27;;;;;;;13.03;100.00;101567.81;10372020;28;20034;-76
2022/08/21 03:08:54;;;;;;;16.55;9.93;;;;;;;12.88;100.00;101559.28;10357022;28;20038;-77
2022/08/21 03:13:55;;;;;;;20.33;11.65;;;;;;;12.76;100.00;101540.03;10355666;28;20034;-76
2022/08/21 03:18:55;;;;;;;19.63;10.20;;;;;;;12.75;100.00;101551.34;10354433;28;20808;-75
2022/08/21 03:23:56;;;;;;;14.43;10.10;;;;;;;12.27;100.00;101482.63;10369914;28;20041;-76
2022/08/21 03:28:57;;;;;;;17.17;9.93;;;;;;;12.59;100.00;101528.16;10387235;28;20521;-76
2022/08/21 03:33:58;;;;;;;23.05;10.60;;;;;;;12.62;100.00;101538.72;10370906;28;20073;-77
2022/08/21 03:38:58;;;;;;;18.08;11.13;;;;;;;12.57;100.00;101524.81;10371623;28;20045;-75
2022/08/21 03:43:59;;;;;;;14.55;10.57;;;;;;;12.57;100.00;101531.19;10387544;28;20042;-75
2022/08/21 03:49:00;;;;;;;19.42;11.40;;;;;;;12.49;100.00;101501.22;10398215;28;20105;-76
2022/08/21 03:54:00;;;;;;;22.92;12.00;;;;;;;12.62;100.00;101525.72;10409170;28;20043;-75
2022/08/21 03:59:02;;;;;;;26.05;13.00;;;;;;;12.76;100.00;101547.50;10413195;28;20064;-75
2022/08/21 04:04:03;;;;;;;21.88;14.32;;;;;;;12.80;100.00;101543.97;10402158;28;20048;-75
2022/08/21 04:09:04;;;;;;;22.48;13.65;;;;;;;12.61;100.00;101507.50;10386212;28;20064;-75
2022/08/21 04:14:04;;;;;;;23.77;14.00;;;;;;;12.80;100.00;101534.84;10386729;28;20091;-75
2022/08/21 04:19:05;;;;;;;26.23;13.98;;;;;;;12.83;100.00;101537.94;10398456;28;20075;-76
2022/08/21 04:24:07;;;;;;;22.65;13.95;;;;;;;12.85;100.00;101540.44;10384271;28;20041;-75
2022/08/21 04:29:07;;;;;;;22.05;12.88;;;;;;;12.76;100.00;101523.47;10401998;28;20041;-75
2022/08/21 04:34:08;;;;;;;22.73;13.07;;;;;;;12.87;100.00;101543.78;10400229;28;20037;-72
2022/08/21 04:39:08;;;;;;;22.60;12.88;;;;;;;12.82;100.00;101538.19;10418979;28;20096;-75
2022/08/21 04:44:09;;;;;;;21.65;13.10;;;;;;;12.87;100.00;101541.03;10401355;28;20057;-75
2022/08/21 04:49:09;;;;;;;16.65;11.82;;;;;;;12.89;100.00;101547.13;10387570;28;20048;-76
2022/08/21 04:54:18;;;;;;;21.48;11.63;;;;;;;12.88;100.00;101539.94;10387934;28;20041;-76
2022/08/21 04:59:31;;;;;;;13.95;10.88;;;;;;;12.47;100.00;101450.94;10416247;28;20045;-75
2022/08/21 05:04:33;;;;;;;19.00;11.85;;;;;;;13.01;100.00;101542.34;10390276;28;20049;-75
2022/08/21 05:09:34;;;;;;;19.17;12.25;;;;;;;12.97;100.00;101529.28;10400971;28;20068;-75
2022/08/21 05:14:34;;;;;;;16.65;12.57;;;;;;;13.19;100.00;101544.00;10400417;28;20528;-76
2022/08/21 05:19:35;;;;;;;16.15;11.68;;;;;;;13.29;100.00;101543.31;10414671;28;20060;-76
2022/08/21 05:24:36;;;;;;;22.98;11.85;;;;;;;13.49;100.00;101545.50;10414448;28;20042;-75
2022/08/21 05:29:36;;;;;;;14.40;10.27;;;;;;;13.55;100.00;101538.13;10382026;28;20121;-76
2022/08/21 05:34:37;;;;;;;17.90;9.73;;;;;;;13.79;100.00;101547.81;10399651;28;20048;-74
2022/08/21 05:39:37;;;;;;;11.93;8.45;;;;;;;13.93;100.00;101545.44;10415521;28;20041;-75
2022/08/21 05:44:38;;;;;;;12.63;8.13;;;;;;;14.10;100.00;101548.97;10416410;28;20065;-76
2022/08/21 05:49:38;;;;;;;16.40;7.85;;;;;;;14.32;100.00;101540.59;10414173;28;20034;-76
2022/08/21 05:54:39;;;;;;;16.95;7.63;;;;;;;14.68;100.00;101535.38;10408226;28;20390;-76
2022/08/21 05:59:39;;;;;;;15.35;7.25;;;;;;;15.06;100.00;101538.94;10413858;28;20572;-76
2022/08/21 06:04:40;;;;;;;11.02;6.20;;;;;;;15.25;100.00;101519.06;10398570;28;20041;-76
2022/08/21 06:09:40;;;;;;;11.40;6.60;;;;;;;15.57;100.00;101526.44;10382705;28;20038;-75
2022/08/21 06:14:41;;;;;;;12.45;6.13;;;;;;;15.82;100.00;101528.47;10390202;28;20037;-76
2022/08/21 06:19:42;;;;;;;9.20;6.30;;;;;;;16.06;100.00;101531.56;10406345;28;20049;-76
2022/08/21 06:24:43;;;;;;;9.40;6.30;;;;;;;16.31;100.00;101528.00;10406119;28;20026;-75
2022/08/21 06:29:44;;;;;;;11.88;6.90;;;;;;;16.41;100.00;101524.38;10424196;28;20059;-74
2022/08/21 06:34:45;;;;;;;12.70;6.07;;;;;;;16.66;100.00;101532.72;10428040;28;20037;-75
2022/08/21 06:39:45;;;;;;;12.85;6.45;;;;;;;16.90;100.00;101534.94;10441385;28;20492;-75
2022/08/21 06:44:47;;;;;;;11.15;6.07;;;;;;;16.77;100.00;101499.34;10426320;28;20409;-75
2022/08/21 06:49:47;;;;;;;13.90;5.85;;;;;;;17.29;100.00;101532.31;10443041;28;20041;-75
2022/08/21 06:54:48;;;;;;;12.18;5.30;;;;;;;17.47;100.00;101536.44;10430633;28;20382;-75
2022/08/21 06:59:48;;;;;;;8.93;4.88;;;;;;;17.59;100.00;101533.34;10436294;28;20034;-76
2022/08/21 07:04:49;;;;;;;9.55;4.82;;;;;;;17.74;100.00;101535.22;10355082;28;20042;-75
2022/08/21 07:09:49;;;;;;;11.55;6.05;;;;;;;17.89;100.00;101532.34;10375084;28;20037;-76
2022/08/21 07:14:50;;;;;;;10.75;5.30;;;;;;;18.02;100.00;101521.69;10373367;28;20057;-75
2022/08/21 07:19:51;;;;;;;11.65;5.05;;;;;;;18.25;100.00;101529.34;10427589;28;20033;-75
2022/08/21 07:24:51;;;;;;;12.25;4.22;;;;;;;18.33;100.00;101514.78;10379009;28;20030;-76
2022/08/21 07:29:52;;;;;;;7.85;4.18;;;;;;;18.51;100.00;101509.59;10409960;28;20033;-74
2022/08/21 07:34:52;;;;;;;12.73;4.35;;;;;;;18.66;100.00;101512.25;10404877;28;20034;-76
2022/08/21 07:39:53;;;;;;;13.73;4.07;;;;;;;18.87;100.00;101512.06;10388179;28;20060;-74
2022/08/21 07:44:54;;;;;;;11.80;4.18;;;;;;;19.01;100.00;101520.59;10368705;28;20049;-76
2022/08/21 07:49:55;;;;;;;9.55;3.03;;;;;;;19.19;100.00;101513.41;10376775;28;20029;-76
2022/08/21 07:54:55;;;;;;;9.80;2.85;;;;;;;19.25;100.00;101501.06;10418386;28;20033;-75
2022/08/21 07:59:56;;;;;;;11.80;3.30;;;;;;;19.49;100.00;101518.63;10405136;28;20060;-76
2022/08/21 08:05:03;;;;;;;10.25;2.83;;;;;;;19.69;100.00;101505.50;10386076;28;20467;-76
2022/08/21 08:10:06;;;;;;;11.55;2.53;;;;;;;19.99;100.00;101514.59;10359769;28;20053;-76
2022/08/21 08:15:09;;;;;;;12.38;3.20;;;;;;;20.13;100.00;101521.94;10395301;28;20038;-74
2022/08/21 08:20:11;;;;;;;8.52;3.15;;;;;;;20.21;100.00;101519.59;10366455;28;20109;-77
2022/08/21 08:25:12;;;;;;;8.20;2.35;;;;;;;20.46;100.00;101519.16;10335971;28;20073;-76
2022/08/21 08:30:13;;;;;;;10.75;3.00;;;;;;;20.63;100.00;101504.66;10352120;28;20043;-77
2022/08/21 08:35:14;;;;;;;9.00;2.60;;;;;;;20.50;100.00;101455.03;10334914;28;20118;-75
2022/08/21 08:40:28;;;;;;;10.25;2.70;;;;;;;20.99;100.00;101494.75;10365385;28;20042;-74
2022/08/21 08:45:30;;;;;;;10.20;2.30;;;;;;;21.17;100.00;101497.44;10318181;28;20095;-76
2022/08/21 08:50:39;;;;;;;10.82;2.83;;;;;;;21.55;100.00;101494.44;10373318;28;20041;-74
2022/08/21 08:55:41;;;;;;;9.20;2.20;;;;;;;21.68;100.00;101480.72;10357633;28;20038;-74
2022/08/21 09:00:42;;;;;;;10.10;2.88;;;;;;;21.64;100.00;101466.53;10390414;28;20095;-75
2022/08/21 09:05:52;;;;;;;15.95;2.45;;;;;;;21.82;100.00;101487.09;10375199;28;20088;-75
2022/08/21 09:11:17;;;;;;;7.90;2.05;;;;;;;21.83;100.00;101483.19;10375201;28;20038;-75
2022/08/21 09:16:50;;;;;;;8.00;2.20;;;;;;;21.68;100.00;101414.28;10376598;28;20426;-76
2022/08/21 09:21:53;;;;;;;11.98;2.88;;;;;;;22.21;100.00;101465.97;10320321;28;20050;-75
2022/08/21 09:27:09;;;;;;;12.13;2.40;;;;;;;22.63;100.00;101477.00;10352937;28;20050;-76
2022/08/21 09:32:20;;;;;;;9.68;2.15;;;;;;;22.64;99.63;101479.50;10377121;28;20065;-75
2022/08/21 09:37:20;;;;;;;10.52;2.08;;;;;;;22.70;97.57;101477.38;10392726;28;20042;-76
2022/08/21 09:42:31;;;;;;;6.35;1.90;;;;;;;22.71;99.04;101463.00;10360452;28;20041;-76
2022/08/21 09:47:32;;;;;;;7.05;2.03;;;;;;;22.98;98.05;101461.16;10359543;28;20038;-75
2022/08/21 09:52:32;;;;;;;4.55;1.85;;;;;;;23.33;93.98;101456.50;10375839;28;20037;-78
2022/08/21 09:57:39;;;;;;;7.50;2.03;;;;;;;23.40;89.98;101456.03;10374944;28;20034;-77
2022/08/21 10:02:39;;;;;;;6.45;2.30;;;;;;;23.23;90.80;101473.66;10371177;28;20437;-75
2022/08/21 10:07:40;;;;;;;10.18;2.80;;;;;;;23.38;87.50;101452.72;10399159;28;20049;-79
2022/08/21 10:12:43;;;;;;;4.38;1.60;;;;;;;23.60;88.31;101464.97;10399599;28;20040;-76
2022/08/21 10:17:56;;;;;;;6.82;1.45;;;;;;;23.73;83.20;101453.59;10399686;28;20036;-77
2022/08/21 10:23:23;;;;;;;4.95;1.40;;;;;;;23.75;82.57;101440.03;10415156;28;20045;-77
2022/08/21 10:28:26;;;;;;;;;;;;;;;24.23;83.06;101452.28;10384698;28;20033;-76
2022/08/21 10:33:41;;;;;;;10.80;1.30;;;;;;;24.32;81.04;101444.63;10398346;28;19917;-76
2022/08/21 10:39:11;;;;;;;6.30;1.50;;;;;;;24.30;78.42;101432.06;10415628;28;20101;-76
2022/08/21 10:44:57;;;;;;;3.95;1.38;;;;;;;24.43;78.16;101435.84;10373391;28;20562;-74
2022/08/21 10:50:01;;;;;;;8.13;1.60;;;;;;;24.84;77.90;101434.41;10331889;28;20041;-75
2022/08/21 10:55:16;;;;;;;7.97;2.00;;;;;;;25.01;75.59;101416.59;10393845;28;20037;-77
2022/08/21 11:00:26;;;;;;;5.25;1.27;;;;;;;25.24;72.83;101408.69;10399053;28;20060;-75
2022/08/21 11:05:35;;;;;;;6.68;1.48;;;;;;;25.38;74.24;101417.72;10397819;28;20037;-79
2022/08/21 11:10:44;;;;;;;4.35;1.70;;;;;;;25.46;73.95;101422.47;10414259;28;20060;-76
2022/08/21 11:16:32;;;;;;;4.50;1.48;;;;;;;25.29;71.29;101414.97;10413557;28;20044;-77
2022/08/21 11:22:07;;;;;;;4.78;1.27;;;;;;;25.88;71.33;101416.84;10389476;28;20034;-75
2022/08/21 11:27:18;;;;;;;5.18;1.05;;;;;;;26.09;70.52;101416.00;10356762;28;20042;-77
2022/08/21 11:32:26;;;;;;;5.32;1.70;;;;;;;26.13;73.05;101422.59;10357856;28;20058;-73
2022/08/21 11:37:32;;;;;;;4.47;1.38;;;;;;;26.51;67.90;101410.22;10372816;28;20073;-72
2022/08/21 11:42:36;;;;;;;5.30;1.48;;;;;;;26.03;68.49;101406.09;10333338;28;20046;-77
2022/08/21 11:47:52;;;;;;;5.28;0.98;;;;;;;25.65;70.47;101413.53;10347842;28;20062;-78
2022/08/21 11:53:18;;;;;;;4.38;1.30;;;;;;;25.35;72.03;101438.13;10386477;28;20425;-77
2022/08/21 11:58:32;;;;;;;6.57;1.38;;;;;;;24.76;70.69;101411.59;10351367;28;20038;-77
2022/08/21 12:03:35;;;;;;;5.72;1.30;;;;;;;24.62;73.63;101432.66;10331355;28;20449;-77
2022/08/21 12:08:37;;;;;;;5.35;2.00;;;;;;;24.33;72.47;101420.97;10371309;28;20113;-77
2022/08/21 12:13:40;;;;;;;13.05;8.80;;;;;;;24.34;77.18;101445.13;10372978;28;20049;-77
2022/08/21 12:18:41;;;;;;;4.05;1.20;;;;;;;24.18;76.19;101441.19;10388074;28;20052;-77
2022/08/21 12:24:05;;;;;;;5.47;1.27;;;;;;;23.87;77.83;101452.63;10391582;28;20121;-77
2022/08/21 12:29:32;;;;;;;6.30;1.25;;;;;;;23.31;79.96;101466.41;10418826;28;20072;-75
2022/08/21 12:34:37;;;;;;;5.03;1.42;;;;;;;22.88;83.68;101467.06;10417373;28;20459;-77
2022/08/21 12:39:38;;;;;;;5.43;1.45;;;;;;;22.48;88.15;101464.22;10402101;28;20060;-77
2022/08/21 12:44:42;;;;;;;8.75;1.38;;;;;;;22.17;94.92;101477.00;10403037;28;20116;-77
2022/08/21 12:49:56;;;;;;;7.30;1.85;;;;;;;22.37;100.00;101472.06;10375716;28;20041;-77
2022/08/21 12:54:56;;;;;;;4.78;1.48;;;;;;;24.07;92.02;101439.88;10416259;28;20405;-76
2022/08/21 13:00:02;;;;;;;7.50;1.42;;;;;;;25.85;81.06;101422.34;10402431;28;20029;-76
2022/08/21 13:05:06;;;;;;;8.18;1.17;;;;;;;27.76;71.97;101413.47;10402887;28;20120;-78
2022/08/21 13:10:20;;;;;;;6.68;1.80;;;;;;;28.82;68.14;101414.00;10378127;28;20061;-76
2022/08/21 13:15:26;;;;;;;5.72;1.58;;;;;;;28.72;64.31;101401.19;10374021;28;20062;-77
2022/08/21 13:20:27;;;;;;;;;;;;;;;27.98;66.35;101420.59;10377526;28;20034;-79
2022/08/21 13:25:30;;;;;;;5.82;1.27;;;;;;;27.37;68.31;101425.25;10419807;28;19984;-78
2022/08/21 13:30:30;;;;;;;7.75;1.83;;;;;;;26.77;66.98;101368.41;10360336;28;20575;-77
2022/08/21 13:35:36;;;;;;;7.25;1.73;;;;;;;26.59;68.37;101414.97;10375136;28;20072;-77
2022/08/21 13:40:57;;;;;;;8.13;1.92;;;;;;;25.58;68.41;101387.88;10397955;28;20507;-77
2022/08/21 13:45:57;;;;;;;6.82;1.20;;;;;;;25.13;72.20;101442.84;10416829;28;20041;-76
2022/08/21 13:50:58;;;;;;;5.55;1.75;;;;;;;24.89;73.90;101448.31;10416804;28;20037;-76
2022/08/21 13:55:59;;;;;;;9.15;2.05;;;;;;;24.92;75.95;101458.88;10400603;28;20045;-77
2022/08/21 14:01:00;;;;;;;4.43;1.65;;;;;;;24.88;75.71;101443.81;10399876;28;20056;-77
2022/08/21 14:06:00;;;;;;;5.70;2.00;;;;;;;24.98;74.60;101451.91;10414571;28;20048;-77
2022/08/21 14:11:03;;;;;;;6.82;1.42;;;;;;;24.72;76.24;101454.81;10417178;28;20128;-76
2022/08/21 14:16:10;;;;;;;10.70;1.95;;;;;;;24.36;76.26;101454.06;10382217;28;20322;-77
2022/08/21 14:21:11;;;;;;;6.18;1.63;;;;;;;24.42;77.90;101463.16;10431561;28;20365;-77
2022/08/21 14:26:12;;;;;;;8.90;1.75;;;;;;;24.52;78.45;101473.28;10391770;28;20034;-76
2022/08/21 14:31:17;;;;;;;5.90;1.58;;;;;;;24.70;77.57;101466.44;10369427;28;20049;-77
2022/08/21 14:36:18;;;;;;;7.47;1.77;;;;;;;24.55;77.87;101464.13;10371046;28;20072;-77
2022/08/21 14:41:22;;;;;;;8.57;1.98;;;;;;;24.34;78.09;101462.00;10375074;28;20042;-76
2022/08/21 14:46:26;;;;;;;5.95;1.50;;;;;;;24.36;79.29;101473.75;10349860;28;20069;-78
2022/08/21 14:51:27;;;;;;;6.47;1.50;;;;;;;24.49;77.10;101462.63;10387635;28;20103;-77
2022/08/21 14:56:27;;;;;;;6.18;1.75;;;;;;;24.60;77.75;101461.16;10373649;28;20033;-77
2022/08/21 15:01:28;;;;;;;5.28;1.50;;;;;;;24.62;76.48;101467.28;10387681;28;20053;-77
2022/08/21 15:06:28;;;;;;;7.60;1.42;;;;;;;24.77;76.63;101479.97;10381654;28;20365;-77
2022/08/21 15:11:29;;;;;;;5.60;1.65;;;;;;;25.05;75.42;101463.44;10387943;28;20041;-78
2022/08/21 15:16:31;;;;;;;6.85;1.30;;;;;;;26.16;74.99;101467.03;10388025;28;20033;-77
2022/08/21 15:21:31;;;;;;;4.00;1.67;;;;;;;27.56;72.12;101463.38;10372596;28;20533;-78
2022/08/21 15:26:31;;;;;;;8.55;1.80;;;;;;;28.88;66.28;101440.88;10372087;28;20034;-76
2022/08/21 15:31:32;;;;;;;8.43;2.15;;;;;;;29.73;62.96;101446.16;10371671;28;20046;-75
2022/08/21 15:36:33;;;;;;;7.05;1.55;;;;;;;29.53;61.65;101446.06;10354926;28;20042;-75
2022/08/21 15:41:33;;;;;;;8.25;2.40;;;;;;;28.51;64.14;101443.13;10402872;28;20057;-75
2022/08/21 15:46:33;;;;;;;7.57;1.95;;;;;;;27.15;66.73;101426.53;10403910;28;20041;-76
2022/08/21 15:51:34;;;;;;;8.00;1.70;;;;;;;26.33;69.34;101463.22;10395943;28;20038;-75
2022/08/21 15:56:36;;;;;;;5.15;1.33;;;;;;;26.31;70.66;101474.84;10432695;28;20062;-76
2022/08/21 16:01:36;;;;;;;4.75;1.40;;;;;;;26.20;68.63;101456.72;10404100;28;20451;-76
2022/08/21 16:06:37;;;;;;;11.18;2.30;;;;;;;25.62;69.80;101472.63;10420561;28;20048;-76
2022/08/21 16:11:38;;;;;;;6.60;1.60;;;;;;;24.45;74.45;101498.25;10420336;28;20034;-76
2022/08/21 16:16:38;;;;;;;9.63;1.90;;;;;;;23.76;80.06;101509.19;10436652;28;20096;-74
2022/08/21 16:21:39;;;;;;;8.15;1.30;;;;;;;22.96;82.14;101466.25;10420553;28;20073;-77
2022/08/21 16:26:40;;;;;;;8.90;2.20;;;;;;;22.88;87.76;101506.34;10392854;28;20038;-77
2022/08/21 16:31:40;;;;;;;9.20;1.90;;;;;;;22.64;89.33;101518.78;10361777;28;20042;-79
2022/08/21 16:36:41;;;;;;;8.55;1.48;;;;;;;22.32;91.79;101517.88;10362454;28;20069;-80
2022/08/21 16:41:41;;;;;;;8.20;1.70;;;;;;;22.19;94.51;101524.38;10391241;28;20026;-77
2022/08/21 16:46:42;;;;;;;8.25;1.73;;;;;;;22.17;95.12;101526.66;10349897;28;20606;-77
2022/08/21 16:51:42;;;;;;;8.88;2.17;;;;;;;22.04;97.06;101535.97;10364843;28;20039;-76
2022/08/21 16:56:43;;;;;;;9.50;2.20;;;;;;;22.05;98.68;101524.41;10334302;28;20034;-77
2022/08/21 17:01:43;;;;;;;15.30;2.28;;;;;;;22.09;98.38;101527.41;10343926;28;20034;-77
2022/08/21 17:06:44;;;;;;;11.07;2.20;;;;;;;22.04;100.00;101549.97;10326008;28;20042;-78
2022/08/21 17:11:46;;;;;;;4.50;1.40;;;;;;;21.82;100.00;101539.53;10363351;28;20045;-77
2022/08/21 17:16:49;;;;;;;9.32;2.55;;;;;;;21.72;100.00;101554.59;10351407;28;20129;-77
2022/08/21 17:21:49;;;;;;;9.95;1.90;;;;;;;21.73;100.00;101545.06;10333554;28;20037;-77
2022/08/21 17:26:50;;;;;;;9.85;2.30;;;;;;;21.64;100.00;101544.97;10349936;28;20042;-76
2022/08/21 17:31:50;;;;;;;12.10;2.30;;;;;;;21.56;100.00;101546.53;10322172;28;20038;-77
2022/08/21 17:36:51;;;;;;;9.48;2.17;;;;;;;21.48;100.00;101566.06;10346883;28;20124;-76
2022/08/21 17:41:52;;;;;;;5.97;1.63;;;;;;;21.35;100.00;101554.50;10363903;28;20133;-77
2022/08/21 17:46:52;;;;;;;13.00;2.92;;;;;;;21.24;100.00;101552.22;10384876;28;20034;-77
2022/08/21 17:51:53;;;;;;;12.43;2.35;;;;;;;21.21;100.00;101569.63;10375742;28;20444;-77
2022/08/21 17:56:54;;;;;;;7.07;1.67;;;;;;;20.95;100.00;101547.72;10371393;28;20499;-76
2022/08/21 18:02:00;;;;;;;8.57;2.00;;;;;;;20.85;100.00;101573.91;10376523;28;20041;-76
2022/08/21 18:07:00;;;;;;;9.50;2.07;;;;;;;20.86;100.00;101571.97;10388488;28;20032;-76
2022/08/21 18:12:01;;;;;;;4.75;1.63;;;;;;;20.73;100.00;101576.34;10376221;28;20034;-76
2022/08/21 18:17:02;;;;;;;9.15;1.88;;;;;;;20.53;100.00;101575.53;10361983;28;20034;-75
2022/08/21 18:22:07;;;;;;;13.15;2.22;;;;;;;20.29;100.00;101566.44;10338799;28;20027;-74
2022/08/21 18:27:08;;;;;;;7.85;1.83;;;;;;;20.23;100.00;101595.59;10386197;28;20030;-75
2022/08/21 18:32:08;;;;;;;10.80;1.77;;;;;;;19.91;100.00;101578.44;10387946;28;20046;-75
2022/08/21 18:37:09;;;;;;;10.10;1.60;;;;;;;19.93;100.00;101595.72;10387334;28;20045;-76
2022/08/21 18:42:10;;;;;;;8.57;1.92;;;;;;;19.78;100.00;101601.50;10387026;28;20042;-76
2022/08/21 18:47:15;;;;;;;9.35;1.75;;;;;;;19.73;100.00;101579.25;10387157;28;20041;-76
2022/08/21 18:52:15;;;;;;;15.70;2.92;;;;;;;19.67;100.00;101608.34;10364778;28;20076;-76
2022/08/21 18:57:17;;;;;;;8.10;2.35;;;;;;;19.45;100.00;101604.13;10350374;28;20105;-77
2022/08/21 19:02:18;;;;;;;7.32;1.80;;;;;;;19.33;100.00;101598.13;10420640;28;20048;-77
2022/08/21 19:07:19;;;;;;;8.45;1.83;;;;;;;19.17;100.00;101594.66;10396035;28;20053;-76
2022/08/21 19:12:22;;;;;;;10.32;2.92;;;;;;;19.01;100.00;101596.75;10394148;28;20037;-76
2022/08/21 19:17:22;;;;;;;10.70;2.00;;;;;;;18.93;100.00;101612.19;10395504;28;20064;-76
2022/08/21 19:22:23;;;;;;;7.95;2.22;;;;;;;18.82;100.00;101618.16;10390768;28;20072;-78
2022/08/21 19:27:23;;;;;;;9.43;2.50;;;;;;;18.56;100.00;101596.00;10393255;28;20101;-76
2022/08/21 19:32:24;;;;;;;11.68;2.38;;;;;;;18.60;100.00;101619.38;10370230;28;20050;-77
2022/08/21 19:37:24;;;;;;;8.85;2.40;;;;;;;18.53;100.00;101624.47;10357284;28;20065;-77
2022/08/21 19:42:25;;;;;;;9.50;3.15;;;;;;;18.40;100.00;101634.31;10346679;28;20117;-76
2022/08/21 19:47:27;;;;;;;6.03;2.58;;;;;;;18.24;100.00;101628.00;10330990;28;20061;-76
2022/08/21 19:52:27;;;;;;;9.50;2.53;;;;;;;18.10;100.00;101626.97;10339392;28;20052;-76
2022/08/21 19:57:28;;;;;;;8.75;2.10;;;;;;;17.98;100.00;101627.28;10397833;28;20065;-76
2022/08/21 20:02:28;;;;;;;7.15;2.58;;;;;;;17.89;100.00;101637.38;10366071;28;20514;-77
2022/08/21 20:07:29;;;;;;;6.95;2.17;;;;;;;17.80;100.00;101645.47;10385688;28;20042;-76
2022/08/21 20:12:30;;;;;;;8.30;2.72;;;;;;;17.52;100.00;101622.72;10386565;28;20034;-76
2022/08/21 20:17:30;;;;;;;9.40;2.50;;;;;;;17.48;100.00;101640.28;10368538;28;20069;-76
2022/08/21 20:22:31;;;;;;;6.88;2.42;;;;;;;17.39;100.00;101648.38;10397961;28;20041;-76
2022/08/21 20:27:31;;;;;;;11.88;4.00;;;;;;;17.24;100.00;101640.88;10397983;28;20046;-75
2022/08/21 20:32:32;;;;;;;7.82;2.70;;;;;;;17.10;100.00;101646.19;10384769;28;20122;-76
2022/08/21 20:37:32;;;;;;;9.90;2.42;;;;;;;17.03;100.00;101645.66;10380285;28;20038;-76
2022/08/21 20:42:33;;;;;;;10.07;2.38;;;;;;;16.96;100.00;101647.03;10387511;28;20101;-76
2022/08/21 20:47:33;;;;;;;8.23;2.40;;;;;;;16.84;100.00;101645.34;10394488;28;20126;-76
2022/08/21 20:52:34;;;;;;;10.00;2.30;;;;;;;16.59;100.00;101621.13;10380894;28;20041;-77
2022/08/21 20:57:49;;;;;;;12.70;3.65;;;;;;;16.68;100.00;101657.53;10359528;28;20042;-77
2022/08/21 21:02:52;;;;;;;10.07;3.20;;;;;;;16.59;100.00;101659.22;10414880;28;20045;-76
2022/08/21 21:08:14;;;;;;;15.23;4.28;;;;;;;16.53;100.00;101672.25;10431917;28;20034;-76
2022/08/21 21:13:37;;;;;;;10.57;4.47;;;;;;;16.42;100.00;101671.41;10399705;28;20609;-76
2022/08/21 21:18:39;;;;;;;10.40;3.35;;;;;;;16.44;100.00;101679.47;10433013;28;20041;-77
2022/08/21 21:24:16;;;;;;;9.95;3.10;;;;;;;16.39;100.00;101674.75;10408475;28;20042;-77
2022/08/21 21:29:18;;;;;;;9.48;2.90;;;;;;;16.36;100.00;101666.13;10357929;28;20045;-77
2022/08/21 21:34:19;;;;;;;10.48;2.83;;;;;;;16.29;100.00;101658.88;10387068;28;20048;-77
2022/08/21 21:39:26;;;;;;;12.38;2.80;;;;;;;16.27;100.00;101651.94;10375379;28;20056;-76
2022/08/21 21:44:31;;;;;;;11.43;2.97;;;;;;;16.27;100.00;101658.31;10373262;28;20037;-76
2022/08/21 21:49:55;;;;;;;9.50;3.63;;;;;;;16.39;100.00;101676.66;10383502;28;20050;-77
2022/08/21 21:55:04;;;;;;;7.28;3.13;;;;;;;16.32;100.00;101644.41;10359065;28;20053;-73
2022/08/21 22:00:16;;;;;;;8.38;3.10;;;;;;;16.53;100.00;101670.31;10369273;28;20092;-76
2022/08/21 22:05:20;;;;;;;8.68;3.22;;;;;;;16.58;100.00;101674.19;10329198;28;20046;-76
2022/08/21 22:10:39;;;;;;;9.20;3.60;;;;;;;16.55;100.00;101672.81;10402036;28;20046;-77
2022/08/21 22:15:39;;;;;;;10.80;3.03;;;;;;;16.53;100.00;101675.03;10370023;28;20033;-76
2022/08/21 22:20:53;;;;;;;10.05;3.05;;;;;;;16.45;100.00;101668.06;10372845;28;20363;-77
2022/08/21 22:25:58;;;;;;;11.57;3.10;;;;;;;16.26;100.00;101653.84;10369949;28;20097;-76
2022/08/21 22:31:13;;;;;;;8.93;2.95;;;;;;;16.24;100.00;101672.72;10388081;28;20089;-77
2022/08/21 22:36:19;;;;;;;9.07;2.97;;;;;;;16.07;100.00;101652.69;10352877;28;20138;-75
2022/08/21 22:41:27;;;;;;;11.43;4.60;;;;;;;16.05;100.00;101661.28;10415006;28;20101;-77
2022/08/21 22:46:33;;;;;;;8.40;3.38;;;;;;;15.99;100.00;101651.25;10384603;28;20052;-76
2022/08/21 22:51:40;;;;;;;11.57;3.45;;;;;;;15.71;100.00;101627.53;10359230;28;20112;-76
2022/08/21 22:56:42;;;;;;;8.02;3.20;;;;;;;15.92;100.00;101670.13;10389776;28;20034;-75